Ana Sayfa
METAR-TAF:

METAR-TAF

Havaalanları :

Sonora Municipal Airport

Sonora, Teksas, Amerika Birleşik Devletleri

Enlem: 30-35-08N, Boylam: 100-38-54W, yükseklik: 652 m

Güncel hava durumu gözlemi

Rapor saat 06:15 UTC de 24 dakika önce yapıldı.
Sakin rüzgar
Sıcaklık 21°C
Nem 49%
Basınç 1023 hPa
Görüş mesafesi: 16.1 km
Açık gökyüzü

METAR: KSOA 240615Z AUTO 00000KT 10SM CLR 21/10 A3022 RMK AO2

Saat: 01:39 (06:39 UTC)

Tahmin

Rapor saat 05:20 UTC de 1 saat ve 19 dakika önce yapıldı.
Ayın 24'si saat 06 UTC'den ayın 25'si saat 06 UTC'ye kadar geçerli Tahmin
Rüzgar kuzeydoğudan 3 kt
Görüş mesafesi: 10 km
Açık gökyüzü

TAF: KSOA 240520Z 2406/2506 04003KT P6SM SKC

4.000'den fazla havaalanı için hava durumu gözlemleri ve tahminleri (METAR ve TAF raporları).

Kullanılabilir istasyonlar harita üzerinde sarı ve kırmızı noktalarla gösterilir.

İstasyonun adını görmek için fareyi noktanın üzerinde gezdirin.

Sonrasında hava gözlem ve tahminlerini görmek için tıklayın.

Haritayı değiştirmek için: yaklaştırmak için siyah artı işaretli yeşil düğmeye ve uzaklaştırmak için de eksi işaretli düğmeye hızla tıklayın; bitişik haritalar için yeşil okları kullanın.


METAR-TAF: